Terminal Aerodrome Forecast
Issued by NWS Cleveland, OH

Home | Current Version | Previous Version | Graphics & Text | Print | Product List | Glossary Off
Versions: 1 2 3 4 5 6 7 8 9 10 11 12 13 14 15 16 17 18 19 20 21 22 23 24 25 26 27 28 29 30 31 32

000
FTUS41 KCLE 181737
TAFCLE
TAF
KCLE 181737Z 1818/1924 25009KT 2SM BR OVC006
      TEMPO 1818/1821 5SM BR OVC008
     FM182100 24008KT P6SM OVC009
      TEMPO 1823/1903 OVC012
     FM190700 22006KT 5SM BR OVC007
     FM191400 22006KT P6SM OVC010
     FM191900 17005KT P6SM SCT012=

USA.gov is the U.S. government's official web portal to all federal, state and local government web resources and services.